< < Back
Terminal Aerodrome Forecast


Current Version              Previous Versions:   1  2  3  4  5  6  7  8  9  

Terminal Aerodrome Forecast

994
FTUS42 KGSP 292300
TAFAND
TAF
KAND 292331Z 3000/3024 07009KT P6SM SKC
     FM301100 00000KT 4SM BR FEW050
     FM301300 13003KT P6SM FEW050
     FM302000 17006KT P6SM BKN060=

Latest METAR

420
SAUS70 KWBC 301000 RRB
MTRAND
METAR KAND 300956Z AUTO 06003KT 10SM CLR 21/19 A3017 RMK AO2 SLP204
T02060189


USA.gov is the U.S. government's official web portal to all federal, state and local government web resources and services.